Time;durP1;ratioP1;P1;durP2;ratioP2;P2;SDS_P1;SDS_P2;PMS_P1;PMS_P2;Temp;Humidity;BMP_temperature;BMP_pressure;BME280_temperature;BME280_humidity;BME280_pressure;Samples;Min_cycle;Max_cycle;Signal;HPM_P1;HPM_P2
2024/01/14 00:01:50;;;;;;;;;76.00;58.00;;;;;1.24;69.41;101293.28;146614;596;46020;-69
2024/01/14 00:04:45;;;;;;;;;75.67;58.33;;;;;1.21;70.61;101295.53;146613;584;46014;-69
2024/01/14 00:07:49;;;;;;;;;75.67;58.33;;;;;1.17;70.57;101296.00;146608;565;48020;-68
2024/01/14 00:10:41;;;;;;;;;75.33;57.33;;;;;1.13;70.92;101288.81;146612;564;46919;-68
2024/01/14 00:13:49;;;;;;;;;78.67;61.00;;;;;1.12;70.63;101289.53;146613;603;46012;-68
2024/01/14 00:16:49;;;;;;;;;80.00;62.00;;;;;1.13;71.10;101279.50;146611;598;47014;-70
2024/01/14 00:19:51;;;;;;;;;78.67;59.33;;;;;1.14;71.22;101285.50;146613;578;46010;-71
2024/01/14 00:22:45;;;;;;;;;85.33;71.67;;;;;1.12;70.84;101289.53;146616;571;47016;-70
2024/01/14 00:25:45;;;;;;;;;88.33;76.33;;;;;1.10;70.89;101291.97;146614;573;47027;-70
2024/01/14 00:28:46;;;;;;;;;80.00;63.33;;;;;1.11;70.74;101297.97;146613;576;46016;-70
2024/01/14 00:31:47;;;;;;;;;82.00;66.00;;;;;1.11;70.47;101287.75;146617;573;46020;-68
2024/01/14 00:34:49;;;;;;;;;79.00;61.33;;;;;1.12;71.00;101284.44;146627;633;46016;-68
2024/01/14 00:37:59;;;;;;;;;79.00;61.00;;;;;1.08;70.55;101282.34;146623;600;47010;-70
2024/01/14 00:40:55;;;;;;;;;75.00;56.00;;;;;1.07;70.61;101284.00;146619;602;46016;-67
2024/01/14 00:44:00;;;;;;;;;71.50;54.00;;;;;1.10;71.14;101279.19;146621;598;46020;-68
2024/01/14 00:47:00;;;;;;;;;74.50;56.50;;;;;1.13;70.97;101276.94;146618;583;46016;-68
2024/01/14 00:49:54;;;;;;;;;66.75;52.00;;;;;1.13;70.43;101265.81;146617;602;46010;-70
2024/01/14 00:52:59;;;;;;;;;58.75;45.50;;;;;1.11;70.75;101267.31;146621;589;46016;-69
2024/01/14 00:55:56;;;;;;;;;61.50;49.50;;;;;1.09;71.41;101272.28;146611;614;47012;-68
2024/01/14 00:58:48;;;;;;;;;59.25;46.50;;;;;1.06;70.09;101265.97;146615;601;47016;-67
2024/01/14 01:01:56;;;;;;;;;57.25;44.00;;;;;1.02;71.27;101276.63;146620;688;46013;-68
2024/01/14 01:04:49;;;;;;;;;54.75;42.25;;;;;0.98;70.59;101267.78;146616;567;46012;-69
2024/01/14 01:07:47;;;;;;;;;57.50;40.75;;;;;1.00;71.10;101263.72;146621;563;46020;-69
2024/01/14 01:10:46;;;;;;;;;45.50;37.00;;;;;1.04;70.30;101247.06;146618;704;46013;-67
2024/01/14 01:13:38;;;;;;;;;46.50;36.75;;;;;1.10;70.91;101250.19;146621;563;46010;-67
2024/01/14 01:16:34;;;;;;;;;47.25;38.75;;;;;1.14;70.00;101236.97;146616;569;46016;-66
2024/01/14 01:19:33;;;;;;;;;50.00;36.25;;;;;1.16;70.38;101245.69;146620;582;46021;-67
2024/01/14 01:22:27;;;;;;;;;45.00;36.50;;;;;1.17;70.24;101242.38;146618;732;46016;-67
2024/01/14 01:25:46;;;;;;;;;;;;;;;;;;;;;
2024/01/14 01:29:03;;;;;;;;;44.50;34.00;;;;;1.18;69.42;101268.81;146620;569;47012;-67
2024/01/14 01:32:04;;;;;;;;;40.75;34.25;;;;;1.11;69.34;101232.47;146624;695;46011;-68
2024/01/14 01:35:05;;;;;;;;;34.50;29.25;;;;;1.08;69.38;101234.72;146611;593;46916;-69
2024/01/14 01:38:09;;;;;;;;;40.00;34.50;;;;;1.06;70.02;101237.88;146613;579;46020;-67
2024/01/14 01:41:12;;;;;;;;;34.75;29.50;;;;;1.03;70.04;101243.59;146610;599;47016;-68
2024/01/14 01:44:06;;;;;;;;;37.25;30.00;;;;;0.97;70.35;101243.00;146615;596;46010;-69
2024/01/14 01:47:00;;;;;;;;;31.75;27.75;;;;;0.87;69.65;101230.06;146609;588;46917;-71
2024/01/14 01:49:57;;;;;;;;;34.50;27.25;;;;;0.83;69.91;101228.88;146612;578;46010;-69
2024/01/14 01:52:59;;;;;;;;;34.50;28.75;;;;;0.79;69.59;101220.78;146608;608;47021;-69
2024/01/14 01:55:52;;;;;;;;;24.00;18.25;;;;;0.78;69.97;101219.87;146607;600;47010;-69
2024/01/14 01:58:55;;;;;;;;;41.00;32.00;;;;;0.76;69.72;101218.81;146611;618;46016;-70
2024/01/14 02:02:00;;;;;;;;;50.50;39.25;;;;;0.76;69.83;101206.06;146610;574;46021;-68
2024/01/14 02:04:58;;;;;;;;;44.25;35.00;;;;;0.77;71.01;101201.84;146609;629;47014;-68
2024/01/14 02:08:05;;;;;;;;;24.00;21.25;;;;;0.77;69.99;101206.97;146616;569;46010;-70
2024/01/14 02:11:06;;;;;;;;;32.75;25.00;;;;;0.76;70.91;101205.16;146611;582;46921;-70
2024/01/14 02:14:20;;;;;;;;;25.50;20.25;;;;;0.76;69.84;101200.97;146615;575;47010;-70
2024/01/14 02:17:25;;;;;;;;;27.00;18.50;;;;;0.72;70.52;101192.84;146611;592;47012;-68
2024/01/14 02:20:24;;;;;;;;;42.75;36.75;;;;;0.68;70.89;101174.66;146613;569;46010;-68
2024/01/14 02:23:32;;;;;;;;;29.50;26.00;;;;;0.66;71.13;101177.84;146610;576;46016;-68
2024/01/14 02:26:39;;;;;;;;;42.00;34.00;;;;;0.65;70.69;101178.59;146602;573;47021;-68
2024/01/14 02:29:35;;;;;;;;;37.50;31.75;;;;;0.70;70.59;101177.38;146614;573;46012;-68
2024/01/14 02:32:31;;;;;;;;;29.25;23.00;;;;;0.72;70.80;101173.34;146615;575;46011;-68
2024/01/14 02:35:26;;;;;;;;;25.25;22.25;;;;;0.73;69.42;101169.13;146610;569;46012;-68
2024/01/14 02:38:31;;;;;;;;;34.00;28.00;;;;;-1.05;69.31;100851.00;146612;578;48010;-67
2024/01/14 02:41:30;;;;;;;;;25.25;24.75;;;;;0.75;69.99;101155.78;146608;603;47016;-69
2024/01/14 02:44:29;;;;;;;;;33.75;26.00;;;;;0.73;70.21;101157.28;146611;631;46012;-69
2024/01/14 02:47:31;;;;;;;;;40.25;35.00;;;;;0.73;69.64;101162.37;146609;571;47012;-70
2024/01/14 02:50:47;;;;;;;;;37.00;27.75;;;;;-1.09;68.32;100842.16;146613;598;46020;-70
2024/01/14 02:53:43;;;;;;;;;32.25;25.00;;;;;0.63;69.74;101152.03;146611;680;46917;-69
2024/01/14 02:56:35;;;;;;;;;28.00;24.75;;;;;0.60;69.11;101151.75;146607;635;46020;-68
2024/01/14 02:59:32;;;;;;;;;27.50;23.00;;;;;0.57;69.14;101149.78;146610;634;47016;-68
2024/01/14 03:02:28;;;;;;;;;35.00;27.50;;;;;0.54;69.06;101151.13;146610;580;47010;-68
2024/01/14 03:05:36;;;;;;;;;37.50;31.25;;;;;0.51;69.63;101149.19;146611;574;46046;-69
2024/01/14 03:08:39;;;;;;;;;32.00;27.50;;;;;0.44;68.81;101137.47;146610;598;48012;-69
2024/01/14 03:11:33;;;;;;;;;29.75;24.50;;;;;0.37;70.27;101142.72;146611;604;47028;-68
2024/01/14 03:14:27;;;;;;;;;32.00;31.00;;;;;0.33;70.46;101140.62;146610;629;46020;-69
2024/01/14 03:17:25;;;;;;;;;35.00;30.00;;;;;0.32;70.22;101143.94;146611;602;46016;-68
2024/01/14 03:20:29;;;;;;;;;32.75;29.00;;;;;0.33;70.66;101143.16;146613;639;46020;-68
2024/01/14 03:23:25;;;;;;;;;36.25;31.25;;;;;0.37;70.55;101152.03;146610;619;46013;-68
2024/01/14 03:26:26;;;;;;;;;37.25;32.00;;;;;0.37;70.26;101146.91;146606;625;46029;-69
2024/01/14 03:29:24;;;;;;;;;38.50;33.25;;;;;-0.51;70.42;101003.19;146606;607;47015;-69
2024/01/14 03:32:42;;;;;;;;;44.75;33.50;;;;;0.29;70.38;101152.94;146608;637;47021;-68
2024/01/14 03:35:39;;;;;;;;;34.75;26.75;;;;;0.25;70.98;101150.81;146610;569;46012;-68
2024/01/14 03:38:36;;;;;;;;;35.50;31.25;;;;;0.22;70.30;101146.34;146611;569;47020;-69
2024/01/14 03:41:34;;;;;;;;;30.50;28.75;;;;;0.22;71.36;101141.25;146610;582;46016;-68
2024/01/14 03:44:46;;;;;;;;;32.00;28.00;;;;;0.22;71.40;101136.13;146613;609;46010;-68
2024/01/14 03:47:47;;;;;;;;;31.75;25.75;;;;;0.19;71.02;101144.38;146607;572;47014;-68
2024/01/14 03:50:53;;;;;;;;;25.50;20.00;;;;;-1.70;72.17;100814.03;146613;563;47020;-70
2024/01/14 03:53:57;;;;;;;;;33.50;26.00;;;;;0.17;71.07;101144.97;146610;572;46923;-71
2024/01/14 03:56:54;;;;;;;;;31.75;27.75;;;;;0.22;71.99;101148.87;146608;609;46020;-70
2024/01/14 03:59:49;;;;;;;;;25.00;23.00;;;;;0.25;70.97;101145.72;146608;717;47012;-69
2024/01/14 04:03:03;;;;;;;;;19.50;19.00;;;;;0.28;72.06;101146.00;146616;595;46010;-70
2024/01/14 04:05:57;;;;;;;;;23.25;20.50;;;;;0.28;71.20;101141.84;146613;592;46013;-71
2024/01/14 04:09:14;;;;;;;;;24.50;19.75;;;;;-0.60;71.48;101001.41;146617;604;46020;-70
2024/01/14 04:12:28;;;;;;;;;28.00;21.00;;;;;0.32;71.12;101133.72;146616;645;46016;-68
2024/01/14 04:15:36;;;;;;;;;23.50;20.00;;;;;0.36;71.21;101130.72;146615;569;46021;-67
2024/01/14 04:18:42;;;;;;;;;28.50;20.00;;;;;0.40;71.87;101137.91;146614;597;46916;-66
2024/01/14 04:21:42;;;;;;;;;19.75;17.75;;;;;0.43;70.58;101132.22;146618;588;46021;-67
2024/01/14 04:24:38;;;;;;;;;27.00;25.75;;;;;0.49;71.01;101134.47;146609;592;47919;-67
2024/01/14 04:27:50;;;;;;;;;25.25;21.00;;;;;0.49;71.80;101135.37;146606;629;47021;-68
2024/01/14 04:30:50;;;;;;;;;19.00;16.50;;;;;0.44;70.25;101139.13;146613;633;46016;-69
2024/01/14 04:33:56;;;;;;;;;24.50;19.25;;;;;0.43;71.09;101143.31;146611;577;47010;-68
2024/01/14 04:36:58;;;;;;;;;26.50;17.50;;;;;0.46;70.42;101145.28;146609;564;47016;-68
2024/01/14 04:40:09;;;;;;;;;20.50;18.25;;;;;-1.05;69.04;100879.88;146618;590;46010;-68
2024/01/14 04:43:12;;;;;;;;;31.50;25.25;;;;;0.36;70.48;101140.03;146611;618;47017;-68
2024/01/14 04:46:20;;;;;;;;;23.25;20.50;;;;;0.28;70.27;101138.34;146615;588;46010;-69
2024/01/14 04:49:17;;;;;;;;;24.25;19.00;;;;;0.19;69.91;101134.19;146611;570;47016;-68
2024/01/14 04:52:18;;;;;;;;;26.75;23.00;;;;;0.16;70.18;101138.97;146613;576;47012;-66
2024/01/14 04:55:17;;;;;;;;;32.00;26.00;;;;;0.13;71.27;101137.78;146609;564;46016;-69
2024/01/14 04:58:19;;;;;;;;;31.50;27.25;;;;;0.11;70.25;101145.25;146604;647;47021;-68
2024/01/14 05:01:18;;;;;;;;;36.00;30.00;;;;;0.07;70.56;101155.91;146612;599;46919;-69
2024/01/14 05:04:33;;;;;;;;;27.25;25.50;;;;;0.09;70.53;101159.50;146611;613;46020;-69
2024/01/14 05:07:29;;;;;;;;;37.25;32.25;;;;;0.12;71.36;101158.91;146610;601;46016;-69
2024/01/14 05:10:29;;;;;;;;;43.25;34.75;;;;;0.08;70.75;101160.25;146613;738;46010;-68
2024/01/14 05:13:30;;;;;;;;;32.75;29.75;;;;;0.10;70.26;101165.53;146611;634;46027;-69
2024/01/14 05:16:23;;;;;;;;;30.25;24.50;;;;;0.05;70.61;101164.16;146614;635;46010;-68
2024/01/14 05:19:20;;;;;;;;;23.25;21.25;;;;;-0.03;71.35;101164.28;146610;630;47016;-67
2024/01/14 05:22:30;;;;;;;;;30.00;24.00;;;;;-0.14;71.27;101169.94;146612;575;46010;-68
2024/01/14 05:25:33;;;;;;;;;25.25;23.00;;;;;-0.13;72.18;101168.31;146607;575;47916;-69
2024/01/14 05:28:49;;;;;;;;;17.75;17.25;;;;;-0.06;72.38;101171.63;146606;576;46021;-69
2024/01/14 05:32:03;;;;;;;;;25.50;21.25;;;;;-0.03;72.57;101177.03;146611;573;46016;-68
2024/01/14 05:35:12;;;;;;;;;16.75;16.75;;;;;0.00;72.17;101176.44;146612;570;46010;-67
2024/01/14 05:38:23;;;;;;;;;60.25;44.75;;;;;0.07;72.06;101181.41;146609;604;46016;-69
2024/01/14 05:41:31;;;;;;;;;34.75;30.00;;;;;0.12;71.88;101186.94;146609;621;47020;-68
2024/01/14 05:44:33;;;;;;;;;22.50;16.50;;;;;0.12;72.21;101184.41;146615;582;46017;-68
2024/01/14 05:47:41;;;;;;;;;23.50;19.75;;;;;0.07;71.67;101186.50;146611;565;47010;-69
2024/01/14 05:50:39;;;;;;;;;24.75;23.25;;;;;0.03;71.90;101189.47;146611;638;46016;-67
2024/01/14 05:53:34;;;;;;;;;28.00;23.50;;;;;0.02;71.57;101184.25;146612;569;47020;-67
2024/01/14 05:56:37;;;;;;;;;30.00;24.50;;;;;0.02;71.81;101179.13;146607;608;46016;-68
2024/01/14 05:59:30;;;;;;;;;28.75;26.00;;;;;0.01;71.87;101190.09;146611;608;46010;-67
2024/01/14 06:02:25;;;;;;;;;29.75;25.75;;;;;0.01;72.21;101185.91;146609;581;47016;-68
2024/01/14 06:05:28;;;;;;;;;;;;;;;;;;;;;
2024/01/14 06:08:35;;;;;;;;;31.75;28.75;;;;;0.06;72.01;101183.78;146614;603;46016;-69
2024/01/14 06:11:32;;;;;;;;;27.50;24.00;;;;;0.06;71.18;101187.22;146614;564;46020;-67
2024/01/14 06:14:28;;;;;;;;;31.75;25.25;;;;;0.06;71.29;101178.69;146611;608;46016;-69
2024/01/14 06:17:34;;;;;;;;;68.50;53.75;;;;;0.06;71.40;101182.13;146614;577;46020;-68
2024/01/14 06:20:45;;;;;;;;;23.00;21.75;;;;;0.08;71.33;101185.75;146611;564;46012;-69
2024/01/14 06:23:49;;;;;;;;;;;;;;;;;;;;;
2024/01/14 06:26:45;;;;;;;;;28.25;26.50;;;;;0.08;72.00;101185.75;146611;570;46013;-69
2024/01/14 06:29:56;;;;;;;;;30.00;25.50;;;;;0.17;72.06;101184.12;146608;592;47010;-70
2024/01/14 06:32:54;;;;;;;;;49.50;36.50;;;;;0.70;73.72;101187.59;146608;612;47012;-67
2024/01/14 06:35:52;;;;;;;;;44.75;35.75;;;;;1.72;76.75;101180.28;146612;581;47012;-69
2024/01/14 06:38:48;;;;;;;;;35.75;30.75;;;;;2.96;76.46;101189.00;146612;578;46016;-69
2024/01/14 06:41:52;;;;;;;;;42.00;32.50;;;;;4.13;71.29;101184.59;146615;598;46021;-70
2024/01/14 06:45:07;;;;;;;;;42.75;32.75;;;;;5.23;68.78;101191.06;146609;641;46016;-70
2024/01/14 06:48:09;;;;;;;;;44.00;35.00;;;;;6.16;62.82;101178.56;146615;660;46020;-69
2024/01/14 06:51:02;;;;;;;;;37.00;32.75;;;;;6.88;60.97;101173.59;146614;607;46017;-69
2024/01/14 06:54:03;;;;;;;;;59.25;45.25;;;;;7.46;58.39;101182.97;146612;565;47012;-70
2024/01/14 06:57:07;;;;;;;;;84.67;66.67;;;;;7.86;56.91;101185.75;146612;624;46017;-70
2024/01/14 07:00:17;;;;;;;;;48.25;39.25;;;;;8.03;54.00;101184.31;146616;595;46010;-71
2024/01/14 07:03:21;;;;;;;;;60.75;48.75;;;;;7.79;51.98;101184.44;146613;581;46013;-69
2024/01/14 07:06:17;;;;;;;;;51.50;41.50;;;;;7.62;54.94;101190.09;146615;587;46021;-68
2024/01/14 07:09:22;;;;;;;;;51.25;40.00;;;;;7.84;55.75;101193.37;146610;589;46922;-70
2024/01/14 07:12:23;;;;;;;;;48.25;39.00;;;;;8.10;54.05;101184.88;146615;566;46020;-68
2024/01/14 07:15:23;;;;;;;;;59.75;48.00;;;;;8.38;52.73;101184.19;146610;602;46019;-70
2024/01/14 07:18:39;;;;;;;;;117.67;93.67;;;;;8.84;54.02;101188.91;146617;635;46011;-69
2024/01/14 07:21:39;;;;;;;;;101.67;87.67;;;;;9.32;51.75;101196.37;146620;582;46012;-69
2024/01/14 07:24:34;;;;;;;;;75.67;60.67;;;;;9.69;49.84;101194.41;146618;577;46020;-70
2024/01/14 07:27:49;;;;;;;;;84.67;73.00;;;;;9.90;49.44;101193.91;146613;577;46017;-67
2024/01/14 07:30:54;;;;;;;;;72.75;55.00;;;;;9.96;48.36;101196.88;146610;610;46020;-70
2024/01/14 07:33:55;;;;;;;;;68.75;52.75;;;;;9.82;48.92;101200.34;146619;569;46017;-71
2024/01/14 07:36:56;;;;;;;;;66.75;52.25;;;;;9.72;50.43;101191.12;146620;666;46010;-69
2024/01/14 07:40:09;;;;;;;;;69.25;51.00;;;;;9.75;49.18;101200.72;146612;577;47013;-70
2024/01/14 07:43:11;;;;;;;;;79.00;63.33;;;;;9.80;50.48;101195.03;146622;658;46025;-72
2024/01/14 07:46:06;;;;;;;;;71.25;55.50;;;;;9.80;48.17;101187.28;146620;657;46016;-72
2024/01/14 07:49:05;;;;;;;;;59.50;47.25;;;;;9.59;48.50;101181.66;146622;628;46028;-71
2024/01/14 07:52:05;;;;;;;;;60.50;49.00;;;;;9.44;49.32;101186.78;146618;596;46014;-69
2024/01/14 07:55:06;;;;;;;;;112.00;81.33;;;;;9.22;48.80;101187.13;146625;732;47010;-69
2024/01/14 07:58:01;;;;;;;;;77.00;60.75;;;;;8.84;49.85;101181.16;146622;635;46012;-70
2024/01/14 08:01:13;;;;;;;;;77.00;66.33;;;;;7.28;51.52;100954.66;146617;619;47010;-69
2024/01/14 08:04:09;;;;;;;;;73.67;59.33;;;;;8.46;50.93;101177.81;146618;611;46016;-71
2024/01/14 08:07:11;;;;;;;;;72.67;58.67;;;;;8.49;52.00;101174.56;146621;564;47010;-73
2024/01/14 08:10:16;;;;;;;;;79.33;67.00;;;;;7.03;53.09;100901.41;146619;577;46913;-70
2024/01/14 08:13:24;;;;;;;;;87.00;76.33;;;;;8.75;51.68;101182.37;146633;580;46029;-71
2024/01/14 08:16:22;;;;;;;;;78.67;63.67;;;;;8.91;51.67;101185.91;146624;569;46013;-72
2024/01/14 08:19:17;;;;;;;;;79.67;69.67;;;;;9.04;50.99;101174.72;146629;602;46010;-71
2024/01/14 08:22:19;;;;;;;;;77.67;65.00;;;;;9.14;51.35;101187.44;146623;675;47012;-71
2024/01/14 08:25:31;;;;;;;;;103.67;94.67;;;;;7.93;52.46;100958.16;146631;566;46028;-71
2024/01/14 08:28:24;;;;;;;;;97.00;86.33;;;;;9.37;50.65;101201.81;146627;591;47012;-71
2024/01/14 08:31:41;;;;;;;;;97.67;90.00;;;;;8.68;52.56;101060.34;146625;610;46020;-69
2024/01/14 08:34:37;;;;;;;;;110.50;99.50;;;;;9.56;51.50;101197.00;146620;569;46025;-70
2024/01/14 08:37:36;;;;;;;;;95.67;84.00;;;;;9.73;50.94;101204.94;146621;631;46020;-71
2024/01/14 08:40:31;;;;;;;;;88.00;80.67;;;;;9.83;50.86;101199.53;146615;590;46013;-70
2024/01/14 08:43:28;;;;;;;;;81.67;74.00;;;;;9.93;50.52;101199.28;146618;577;46020;-70
2024/01/14 08:46:30;;;;;;;;;80.00;71.33;;;;;10.06;50.80;101200.91;146613;587;47012;-70
2024/01/14 08:49:44;;;;;;;;;83.33;70.33;;;;;10.15;51.52;101197.19;146616;600;46020;-71
2024/01/14 08:53:03;;;;;;;;;75.50;60.00;;;;;8.87;52.20;100946.03;146617;572;46016;-72
2024/01/14 08:55:58;;;;;;;;;66.25;51.00;;;;;10.39;50.90;101190.03;146610;573;48012;-71
2024/01/14 08:58:56;;;;;;;;;58.50;46.25;;;;;10.51;51.00;101188.97;146610;631;46016;-71
2024/01/14 09:02:00;;;;;;;;;65.50;49.75;;;;;10.58;51.57;101180.75;146607;593;46021;-71
2024/01/14 09:05:02;;;;;;;;;65.25;50.00;;;;;10.58;50.19;101181.63;146608;585;47014;-71
2024/01/14 09:07:54;;;;;;;;;63.50;48.00;;;;;10.47;49.93;101176.66;146612;570;47020;-72
2024/01/14 09:10:49;;;;;;;;;63.25;50.25;;;;;10.34;51.28;101178.50;146609;579;46034;-72
2024/01/14 09:13:48;;;;;;;;;70.50;56.00;;;;;10.27;51.62;101175.44;146612;612;46020;-72
2024/01/14 09:16:48;;;;;;;;;64.25;49.25;;;;;10.26;51.46;101173.63;146609;617;46014;-72
2024/01/14 09:19:41;;;;;;;;;65.50;50.50;;;;;10.30;52.92;101173.03;146614;599;46020;-72
2024/01/14 09:22:44;;;;;;;;;65.00;47.75;;;;;10.48;52.98;101174.12;146609;609;47012;-72
2024/01/14 09:25:39;;;;;;;;;60.25;47.25;;;;;9.96;50.96;101062.16;146615;685;46010;-71
2024/01/14 09:28:39;;;;;;;;;63.50;48.25;;;;;10.67;50.51;101177.78;146612;599;46016;-72
2024/01/14 09:31:39;;;;;;;;;63.75;49.75;;;;;10.68;51.54;101177.88;146607;571;47020;-72
2024/01/14 09:34:40;;;;;;;;;68.50;52.50;;;;;10.83;52.65;101162.31;146610;594;46016;-72
2024/01/14 09:37:35;;;;;;;;;76.75;61.50;;;;;11.05;50.49;101165.28;146612;571;46010;-72
2024/01/14 09:40:27;;;;;;;;;70.25;55.25;;;;;11.25;50.73;101162.94;146611;602;46014;-72
2024/01/14 09:43:21;;;;;;;;;65.50;51.25;;;;;11.36;49.79;101158.31;146612;640;46033;-72
2024/01/14 09:46:17;;;;;;;;;63.75;49.75;;;;;11.41;50.25;101152.59;146607;604;46936;-75
2024/01/14 09:49:27;;;;;;;;;57.25;44.25;;;;;11.54;49.68;101146.34;146616;584;46020;-72
2024/01/14 09:52:50;;;;;;;;;50.50;40.25;;;;;11.57;48.84;101138.72;146608;603;46018;-73
2024/01/14 09:55:50;;;;;;;;;51.25;41.50;;;;;11.55;48.81;101133.44;146613;629;47020;-73
2024/01/14 09:58:49;;;;;;;;;55.00;42.25;;;;;11.65;49.42;101120.94;146611;591;46016;-73
2024/01/14 10:01:58;;;;;;;;;66.75;52.25;;;;;11.86;50.27;101110.81;146605;583;46021;-72
2024/01/14 10:05:17;;;;;;;;;;;;;;;;;;;;;
2024/01/14 10:08:13;;;;;;;;;57.50;44.50;;;;;12.26;48.16;101100.75;146610;630;46020;-72
2024/01/14 10:11:08;;;;;;;;;53.50;43.25;;;;;12.34;48.28;101090.75;146611;565;46032;-72
2024/01/14 10:14:08;;;;;;;;;49.75;41.50;;;;;12.34;46.85;101093.34;146607;577;47916;-74
2024/01/14 10:17:17;;;;;;;;;41.50;34.50;;;;;10.83;48.65;100825.06;146610;576;46012;-74
2024/01/14 10:20:14;;;;;;;;;45.75;37.00;;;;;12.32;46.56;101080.25;146613;596;47020;-71
2024/01/14 10:23:23;;;;;;;;;49.75;40.00;;;;;12.37;46.93;101080.50;146607;631;47012;-72
2024/01/14 10:26:24;;;;;;;;;40.75;33.00;;;;;12.36;44.34;101071.78;146615;573;46020;-72
2024/01/14 10:29:29;;;;;;;;;50.75;38.25;;;;;12.27;47.01;101070.44;146611;688;46016;-73
2024/01/14 10:32:35;;;;;;;;;48.50;38.50;;;;;12.24;48.12;101065.97;146608;643;46020;-71
2024/01/14 10:35:42;;;;;;;;;47.25;36.75;;;;;12.24;47.53;101061.69;146613;580;46031;-71
2024/01/14 10:39:07;;;;;;;;;48.00;38.00;;;;;12.28;46.25;101051.44;146614;572;46010;-70
2024/01/14 10:42:03;;;;;;;;;45.50;36.25;;;;;12.37;46.28;101051.91;146612;577;46016;-70
2024/01/14 10:44:56;;;;;;;;;37.25;31.25;;;;;12.48;46.57;101050.69;146616;585;47015;-70
2024/01/14 10:48:11;;;;;;;;;33.50;31.00;;;;;12.63;47.20;101053.16;146612;580;46016;-71
2024/01/14 10:51:11;;;;;;;;;41.00;34.25;;;;;12.74;44.94;101038.97;146611;600;46010;-70
2024/01/14 10:54:34;;;;;;;;;41.25;34.75;;;;;12.77;46.17;101033.00;146611;626;46017;-71
2024/01/14 10:57:49;;;;;;;;;38.50;31.50;;;;;11.35;46.70;100757.62;146614;608;46020;-71
2024/01/14 11:00:53;;;;;;;;;37.00;32.50;;;;;13.01;44.87;101017.63;146607;631;46012;-70
2024/01/14 11:03:51;;;;;;;;;33.25;29.50;;;;;13.17;45.15;101014.91;146606;628;46020;-71
2024/01/14 11:06:55;;;;;;;;;44.25;36.00;;;;;13.38;43.93;101012.41;146612;571;46014;-70
2024/01/14 11:10:12;;;;;;;;;;;;;;;;;;;;;
2024/01/14 11:13:32;;;;;;;;;39.25;33.50;;;;;13.69;44.93;100987.69;146609;626;46014;-71
2024/01/14 11:16:51;;;;;;;;;47.75;36.00;;;;;13.79;44.45;100984.66;146611;573;46011;-71
2024/01/14 11:19:58;;;;;;;;;34.00;30.75;;;;;13.91;43.07;100973.84;146611;600;46014;-71
2024/01/14 11:23:00;;;;;;;;;25.75;20.75;;;;;13.95;40.70;100966.22;146614;673;46010;-71
2024/01/14 11:25:59;;;;;;;;;42.00;34.50;;;;;13.89;41.20;100959.84;146613;630;47012;-70
2024/01/14 11:28:53;;;;;;;;;43.00;34.75;;;;;13.84;42.48;100963.16;146610;630;46025;-71
2024/01/14 11:32:25;;;;;;;;;33.00;28.75;;;;;12.74;43.73;100757.97;146612;597;46923;-72
2024/01/14 11:35:43;;;;;;;;;29.00;26.00;;;;;13.92;41.06;100952.16;146609;596;46020;-72
2024/01/14 11:39:15;;;;;;;;;40.25;33.75;;;;;13.99;43.34;100959.44;146612;636;46018;-72
2024/01/14 11:42:12;;;;;;;;;33.00;27.75;;;;;14.07;41.44;100948.47;146614;606;46012;-70
2024/01/14 11:45:51;;;;;;;;;26.50;24.25;;;;;14.16;42.56;100947.06;146609;580;46025;-70
2024/01/14 11:48:49;;;;;;;;;34.75;30.25;;;;;14.17;40.39;100944.50;146614;622;46012;-70
2024/01/14 11:52:05;;;;;;;;;34.50;31.50;;;;;14.20;43.92;100946.34;146604;588;48012;-70
2024/01/14 11:55:14;;;;;;;;;47.75;35.25;;;;;14.26;43.05;100939.66;146610;569;46020;-70
2024/01/14 11:58:25;;;;;;;;;35.75;31.50;;;;;14.35;42.90;100930.44;146611;649;47014;-71
2024/01/14 12:01:26;;;;;;;;;38.00;33.50;;;;;14.44;40.89;100929.06;146613;564;46021;-72
2024/01/14 12:04:38;;;;;;;;;42.75;35.00;;;;;14.50;42.44;100921.47;146610;621;46016;-71
2024/01/14 12:07:31;;;;;;;;;41.75;34.75;;;;;14.54;41.40;100912.06;146604;612;46021;-71
2024/01/14 12:10:35;;;;;;;;;37.00;32.50;;;;;14.57;39.59;100904.34;146612;564;46917;-70
2024/01/14 12:13:35;;;;;;;;;39.00;32.75;;;;;14.55;40.33;100903.44;146611;600;46010;-70
2024/01/14 12:16:31;;;;;;;;;48.50;37.25;;;;;14.62;41.46;100897.59;146612;774;46016;-69
2024/01/14 12:19:30;;;;;;;;;40.75;34.00;;;;;14.75;41.42;100896.34;146615;569;46010;-71
2024/01/14 12:22:30;;;;;;;;;37.25;32.25;;;;;14.87;41.01;100883.72;146611;579;46017;-71
2024/01/14 12:25:32;;;;;;;;;32.50;29.25;;;;;14.97;38.88;100888.44;146612;582;46020;-71
2024/01/14 12:28:26;;;;;;;;;30.00;29.25;;;;;15.01;38.97;100882.53;146607;621;47016;-71
2024/01/14 12:31:31;;;;;;;;;34.25;30.50;;;;;15.07;40.83;100880.94;146606;617;47011;-70
2024/01/14 12:34:36;;;;;;;;;27.50;26.75;;;;;15.17;39.05;100872.59;146612;613;47012;-71
2024/01/14 12:37:41;;;;;;;;;35.00;28.25;;;;;15.31;40.63;100862.62;146609;579;46012;-71
2024/01/14 12:40:40;;;;;;;;;22.75;19.75;;;;;15.45;38.67;100857.03;146612;610;46016;-70
2024/01/14 12:43:41;;;;;;;;;21.50;18.50;;;;;15.58;37.71;100847.88;146612;642;46020;-71
2024/01/14 12:46:46;;;;;;;;;22.75;21.50;;;;;15.74;36.67;100851.91;146611;731;46017;-70
2024/01/14 12:50:01;;;;;;;;;37.00;32.00;;;;;15.90;37.33;100843.72;146615;575;46028;-71
2024/01/14 12:53:22;;;;;;;;;29.25;26.50;;;;;16.00;38.65;100844.00;146612;646;46014;-71
2024/01/14 12:56:25;;;;;;;;;36.25;31.00;;;;;16.13;41.54;100843.53;146614;628;46020;-71
2024/01/14 12:59:22;;;;;;;;;35.75;31.75;;;;;16.29;38.36;100842.25;146608;633;47012;-70
2024/01/14 13:02:21;;;;;;;;;35.50;30.00;;;;;16.46;36.82;100837.53;146614;631;46020;-70
2024/01/14 13:05:16;;;;;;;;;40.25;32.25;;;;;16.61;36.73;100837.97;146608;573;46016;-70
2024/01/14 13:08:17;;;;;;;;;41.50;31.50;;;;;16.62;36.40;100838.00;146606;590;46021;-71
2024/01/14 13:11:12;;;;;;;;;44.50;35.50;;;;;16.63;37.10;100836.28;146608;579;46033;-71
2024/01/14 13:14:10;;;;;;;;;40.75;34.00;;;;;16.72;37.73;100846.13;146615;587;46011;-71
2024/01/14 13:17:10;;;;;;;;;39.75;32.50;;;;;16.75;36.30;100836.66;146610;611;46016;-70
2024/01/14 13:20:08;;;;;;;;;24.75;24.00;;;;;16.77;37.55;100836.72;146615;608;46020;-71
2024/01/14 13:23:12;;;;;;;;;38.50;31.25;;;;;16.74;39.13;100831.34;146610;593;46017;-69
2024/01/14 13:26:09;;;;;;;;;39.25;31.00;;;;;16.83;37.74;100827.28;146616;625;46020;-70
2024/01/14 13:29:12;;;;;;;;;33.75;29.50;;;;;16.92;36.61;100829.28;146612;574;46016;-71
2024/01/14 13:32:13;;;;;;;;;33.75;28.75;;;;;16.93;36.99;100825.81;146611;637;46020;-70
2024/01/14 13:35:11;;;;;;;;;33.75;30.50;;;;;16.91;38.12;100835.34;146609;616;46012;-72
2024/01/14 13:38:11;;;;;;;;;27.50;23.75;;;;;16.89;36.21;100826.56;146608;581;46010;-71
2024/01/14 13:41:22;;;;;;;;;24.75;24.75;;;;;16.81;37.66;100828.09;146610;565;46033;-71
2024/01/14 13:44:21;;;;;;;;;46.25;37.75;;;;;16.88;37.71;100829.13;146615;601;46030;-70
2024/01/14 13:47:24;;;;;;;;;30.00;27.00;;;;;16.86;38.20;100831.72;146612;580;47014;-71
2024/01/14 13:50:21;;;;;;;;;29.25;26.50;;;;;16.84;37.76;100836.91;146613;592;46020;-71
2024/01/14 13:53:19;;;;;;;;;30.00;26.75;;;;;16.74;36.83;100827.00;146608;595;47012;-71
2024/01/14 13:56:32;;;;;;;;;37.25;31.25;;;;;16.71;39.72;100821.69;146608;569;46020;-71
2024/01/14 13:59:44;;;;;;;;;46.50;37.25;;;;;16.78;38.78;100822.78;146605;585;46017;-71
2024/01/14 14:02:42;;;;;;;;;41.00;33.50;;;;;16.80;37.64;100819.34;146608;671;46010;-71
2024/01/14 14:05:48;;;;;;;;;;;;;;;;;;;;;